createdAt,value
2022-08-17T09:48:12.260Z,7.10
2022-08-17T09:51:05.993Z,6.32
2022-08-17T09:53:36.863Z,7.65
2022-08-17T09:56:09.863Z,8.60
2022-08-17T09:58:53.254Z,8.48
2022-08-17T10:01:41.081Z,10.15
2022-08-17T10:04:22.099Z,10.60
2022-08-17T11:30:02.542Z,13.70
2022-08-17T11:32:37.398Z,13.05
2022-08-17T11:35:21.241Z,12.73
2022-08-17T11:37:56.782Z,12.82
2022-08-17T11:40:42.081Z,13.85
2022-08-17T11:43:27.398Z,14.45
2022-08-17T11:46:13.907Z,13.13
2022-08-17T11:52:00.178Z,14.38
2022-08-17T11:54:33.410Z,16.42
2022-08-17T11:57:26.696Z,17.23
2022-08-17T12:00:00.970Z,15.40
2022-08-17T12:52:18.366Z,40.60
2022-08-17T12:55:07.364Z,40.28
2022-08-17T12:58:03.799Z,27.95
2022-08-17T13:00:47.757Z,27.67
2022-08-17T13:03:36.181Z,24.35
2022-08-17T13:06:10.151Z,20.30
2022-08-17T13:08:43.816Z,18.45
2022-08-17T13:11:20.480Z,18.50
2022-08-17T13:13:54.499Z,16.90
2022-08-17T13:19:18.926Z,16.15
2022-08-17T13:22:11.712Z,17.25
2022-08-17T13:27:12.130Z,20.48
2022-08-17T13:29:44.649Z,15.05
2022-08-17T13:45:39.425Z,17.55
2022-08-17T14:38:23.432Z,18.40
2022-08-17T14:50:41.845Z,14.70
2022-08-17T14:53:16.099Z,13.18
2022-08-17T14:55:45.824Z,13.18
2022-08-17T14:58:14.147Z,13.90
2022-08-17T15:00:43.710Z,13.02
2022-08-17T15:22:51.072Z,14.43
2022-08-17T15:25:19.378Z,17.15
2022-08-17T15:27:47.480Z,16.42
2022-08-17T15:30:15.188Z,18.70
2022-08-17T19:15:12.086Z,14.38
2022-08-17T19:49:09.490Z,16.02
2022-08-17T21:20:58.348Z,33.40
